sensor_id;sensor_type;location;lat;lon;timestamp;temperature;humidity
14531;DHT22;7352;50.866;4.366;2023-05-19T00:02:17;13.50;91.40
14531;DHT22;7352;50.866;4.366;2023-05-19T00:04:48;13.50;91.40
14531;DHT22;7352;50.866;4.366;2023-05-19T00:07:17;13.50;91.20
14531;DHT22;7352;50.866;4.366;2023-05-19T00:09:46;13.40;91.40
14531;DHT22;7352;50.866;4.366;2023-05-19T00:12:17;13.30;91.90
14531;DHT22;7352;50.866;4.366;2023-05-19T00:14:44;13.20;92.10
14531;DHT22;7352;50.866;4.366;2023-05-19T00:17:14;13.10;92.20
14531;DHT22;7352;50.866;4.366;2023-05-19T00:19:43;13.20;92.10
14531;DHT22;7352;50.866;4.366;2023-05-19T00:22:13;13.30;92.00
14531;DHT22;7352;50.866;4.366;2023-05-19T00:24:44;13.30;91.60
14531;DHT22;7352;50.866;4.366;2023-05-19T00:27:12;13.40;91.60
14531;DHT22;7352;50.866;4.366;2023-05-19T00:29:41;13.40;91.40
14531;DHT22;7352;50.866;4.366;2023-05-19T00:32:08;13.40;91.80
14531;DHT22;7352;50.866;4.366;2023-05-19T00:34:36;13.20;91.70
14531;DHT22;7352;50.866;4.366;2023-05-19T00:37:08;13.30;92.10
14531;DHT22;7352;50.866;4.366;2023-05-19T00:39:35;13.30;92.30
14531;DHT22;7352;50.866;4.366;2023-05-19T00:42:02;13.30;92.20
14531;DHT22;7352;50.866;4.366;2023-05-19T00:44:30;13.30;92.30
14531;DHT22;7352;50.866;4.366;2023-05-19T00:46:58;13.30;92.50
14531;DHT22;7352;50.866;4.366;2023-05-19T00:49:26;13.10;92.70
14531;DHT22;7352;50.866;4.366;2023-05-19T00:51:56;13.00;93.10
14531;DHT22;7352;50.866;4.366;2023-05-19T00:54:25;13.00;93.50
14531;DHT22;7352;50.866;4.366;2023-05-19T00:56:53;13.10;93.40
14531;DHT22;7352;50.866;4.366;2023-05-19T00:59:20;13.10;93.30
14531;DHT22;7352;50.866;4.366;2023-05-19T01:01:48;13.10;93.20
14531;DHT22;7352;50.866;4.366;2023-05-19T01:04:17;12.90;93.60
14531;DHT22;7352;50.866;4.366;2023-05-19T01:06:49;12.70;93.80
14531;DHT22;7352;50.866;4.366;2023-05-19T01:09:20;12.70;93.90
14531;DHT22;7352;50.866;4.366;2023-05-19T01:11:48;12.50;94.70
14531;DHT22;7352;50.866;4.366;2023-05-19T01:14:17;12.70;94.50
14531;DHT22;7352;50.866;4.366;2023-05-19T01:16:48;12.80;94.50
14531;DHT22;7352;50.866;4.366;2023-05-19T01:19:31;12.80;94.30
14531;DHT22;7352;50.866;4.366;2023-05-19T01:22:16;12.70;94.50
14531;DHT22;7352;50.866;4.366;2023-05-19T01:28:18;12.50;95.10
14531;DHT22;7352;50.866;4.366;2023-05-19T01:30:52;12.50;95.10
14531;DHT22;7352;50.866;4.366;2023-05-19T01:33:20;12.40;95.50
14531;DHT22;7352;50.866;4.366;2023-05-19T01:35:49;12.50;95.20
14531;DHT22;7352;50.866;4.366;2023-05-19T01:38:20;12.40;95.50
14531;DHT22;7352;50.866;4.366;2023-05-19T01:40:48;12.40;95.60
14531;DHT22;7352;50.866;4.366;2023-05-19T01:43:18;12.40;95.40
14531;DHT22;7352;50.866;4.366;2023-05-19T01:45:46;12.30;95.50
14531;DHT22;7352;50.866;4.366;2023-05-19T01:48:17;12.30;96.10
14531;DHT22;7352;50.866;4.366;2023-05-19T01:50:46;12.20;95.90
14531;DHT22;7352;50.866;4.366;2023-05-19T01:53:13;12.20;96.50
14531;DHT22;7352;50.866;4.366;2023-05-19T01:55:43;12.40;96.00
14531;DHT22;7352;50.866;4.366;2023-05-19T01:58:17;12.50;95.90
14531;DHT22;7352;50.866;4.366;2023-05-19T02:00:51;12.40;95.80
14531;DHT22;7352;50.866;4.366;2023-05-19T02:03:33;12.30;95.80
14531;DHT22;7352;50.866;4.366;2023-05-19T02:06:17;12.20;96.40
14531;DHT22;7352;50.866;4.366;2023-05-19T02:08:50;12.10;96.80
14531;DHT22;7352;50.866;4.366;2023-05-19T02:11:28;12.20;96.60
14531;DHT22;7352;50.866;4.366;2023-05-19T02:14:00;12.10;96.90
14531;DHT22;7352;50.866;4.366;2023-05-19T02:16:28;12.10;97.20
14531;DHT22;7352;50.866;4.366;2023-05-19T02:18:57;12.10;97.10
14531;DHT22;7352;50.866;4.366;2023-05-19T02:21:24;12.00;97.30
14531;DHT22;7352;50.866;4.366;2023-05-19T02:23:51;12.00;97.70
14531;DHT22;7352;50.866;4.366;2023-05-19T02:26:18;12.00;98.00
14531;DHT22;7352;50.866;4.366;2023-05-19T02:28:45;12.20;97.40
14531;DHT22;7352;50.866;4.366;2023-05-19T02:31:12;12.20;97.40
14531;DHT22;7352;50.866;4.366;2023-05-19T02:33:39;11.90;98.40
14531;DHT22;7352;50.866;4.366;2023-05-19T02:36:09;11.80;98.80
14531;DHT22;7352;50.866;4.366;2023-05-19T02:38:37;11.80;99.00
14531;DHT22;7352;50.866;4.366;2023-05-19T02:41:04;11.60;99.60
14531;DHT22;7352;50.866;4.366;2023-05-19T02:43:31;11.70;99.50
14531;DHT22;7352;50.866;4.366;2023-05-19T02:45:57;11.80;99.20
14531;DHT22;7352;50.866;4.366;2023-05-19T02:48:24;11.80;98.90
14531;DHT22;7352;50.866;4.366;2023-05-19T02:50:51;11.70;99.30
14531;DHT22;7352;50.866;4.366;2023-05-19T02:53:20;11.60;99.80
14531;DHT22;7352;50.866;4.366;2023-05-19T02:55:47;11.60;99.90
14531;DHT22;7352;50.866;4.366;2023-05-19T02:58:14;11.50;99.90
14531;DHT22;7352;50.866;4.366;2023-05-19T03:00:42;11.60;99.90
14531;DHT22;7352;50.866;4.366;2023-05-19T03:03:09;11.70;99.60
14531;DHT22;7352;50.866;4.366;2023-05-19T03:05:38;11.80;99.70
14531;DHT22;7352;50.866;4.366;2023-05-19T03:08:05;11.70;99.90
14531;DHT22;7352;50.866;4.366;2023-05-19T03:10:34;11.70;99.90
14531;DHT22;7352;50.866;4.366;2023-05-19T03:13:03;11.60;99.90
14531;DHT22;7352;50.866;4.366;2023-05-19T03:15:30;11.50;99.90
14531;DHT22;7352;50.866;4.366;2023-05-19T03:17:58;11.50;99.90
14531;DHT22;7352;50.866;4.366;2023-05-19T03:20:25;11.70;99.90
14531;DHT22;7352;50.866;4.366;2023-05-19T03:22:54;11.70;99.90
14531;DHT22;7352;50.866;4.366;2023-05-19T03:25:22;11.50;99.90
14531;DHT22;7352;50.866;4.366;2023-05-19T03:27:50;11.50;99.90
14531;DHT22;7352;50.866;4.366;2023-05-19T03:30:17;11.40;99.90
14531;DHT22;7352;50.866;4.366;2023-05-19T03:32:44;11.50;99.90
14531;DHT22;7352;50.866;4.366;2023-05-19T03:35:11;11.20;99.90
14531;DHT22;7352;50.866;4.366;2023-05-19T03:37:38;11.10;99.90
14531;DHT22;7352;50.866;4.366;2023-05-19T03:40:06;11.20;99.90
14531;DHT22;7352;50.866;4.366;2023-05-19T03:42:35;11.20;99.90
14531;DHT22;7352;50.866;4.366;2023-05-19T03:45:04;11.10;99.90
14531;DHT22;7352;50.866;4.366;2023-05-19T03:47:31;11.20;99.90
14531;DHT22;7352;50.866;4.366;2023-05-19T03:49:59;11.30;99.90
14531;DHT22;7352;50.866;4.366;2023-05-19T03:52:26;11.30;99.90
14531;DHT22;7352;50.866;4.366;2023-05-19T03:54:53;11.10;99.90
14531;DHT22;7352;50.866;4.366;2023-05-19T03:57:22;11.10;99.90
14531;DHT22;7352;50.866;4.366;2023-05-19T03:59:49;11.10;99.90
14531;DHT22;7352;50.866;4.366;2023-05-19T04:02:17;11.10;99.90
14531;DHT22;7352;50.866;4.366;2023-05-19T04:04:44;11.20;99.90
14531;DHT22;7352;50.866;4.366;2023-05-19T04:07:11;11.20;99.90
14531;DHT22;7352;50.866;4.366;2023-05-19T04:09:38;11.20;99.90
14531;DHT22;7352;50.866;4.366;2023-05-19T04:12:06;11.00;99.90
14531;DHT22;7352;50.866;4.366;2023-05-19T04:14:33;11.10;99.90
14531;DHT22;7352;50.866;4.366;2023-05-19T04:17:00;11.10;99.90
14531;DHT22;7352;50.866;4.366;2023-05-19T04:19:29;11.00;99.90
14531;DHT22;7352;50.866;4.366;2023-05-19T04:21:56;11.00;99.90
14531;DHT22;7352;50.866;4.366;2023-05-19T04:24:22;11.00;99.90
14531;DHT22;7352;50.866;4.366;2023-05-19T04:26:50;11.10;99.90
14531;DHT22;7352;50.866;4.366;2023-05-19T04:29:18;11.20;99.90
14531;DHT22;7352;50.866;4.366;2023-05-19T04:31:46;11.20;99.90
14531;DHT22;7352;50.866;4.366;2023-05-19T04:34:13;11.20;99.90
14531;DHT22;7352;50.866;4.366;2023-05-19T04:36:46;11.10;99.90
14531;DHT22;7352;50.866;4.366;2023-05-19T04:39:13;11.20;99.90
14531;DHT22;7352;50.866;4.366;2023-05-19T04:41:40;11.20;99.90
14531;DHT22;7352;50.866;4.366;2023-05-19T04:44:10;11.40;99.90
14531;DHT22;7352;50.866;4.366;2023-05-19T04:46:38;11.50;99.90
14531;DHT22;7352;50.866;4.366;2023-05-19T04:49:07;11.40;99.90
14531;DHT22;7352;50.866;4.366;2023-05-19T04:51:36;11.40;99.90
14531;DHT22;7352;50.866;4.366;2023-05-19T04:54:07;11.40;99.90
14531;DHT22;7352;50.866;4.366;2023-05-19T04:56:34;11.40;99.90
14531;DHT22;7352;50.866;4.366;2023-05-19T04:59:01;11.40;99.90
14531;DHT22;7352;50.866;4.366;2023-05-19T05:01:31;11.40;99.90
14531;DHT22;7352;50.866;4.366;2023-05-19T05:03:58;11.60;99.90
14531;DHT22;7352;50.866;4.366;2023-05-19T05:06:26;11.50;99.90
14531;DHT22;7352;50.866;4.366;2023-05-19T05:08:54;11.70;99.90
14531;DHT22;7352;50.866;4.366;2023-05-19T05:11:25;11.80;99.90
14531;DHT22;7352;50.866;4.366;2023-05-19T05:13:52;11.80;99.90
14531;DHT22;7352;50.866;4.366;2023-05-19T05:16:23;11.80;99.90
14531;DHT22;7352;50.866;4.366;2023-05-19T05:18:51;11.90;99.90
14531;DHT22;7352;50.866;4.366;2023-05-19T05:21:19;11.90;99.90
14531;DHT22;7352;50.866;4.366;2023-05-19T05:23:46;12.00;99.90
14531;DHT22;7352;50.866;4.366;2023-05-19T05:26:16;12.00;99.90
14531;DHT22;7352;50.866;4.366;2023-05-19T05:28:45;12.10;99.90
14531;DHT22;7352;50.866;4.366;2023-05-19T05:31:12;12.00;99.90
14531;DHT22;7352;50.866;4.366;2023-05-19T05:33:39;12.00;99.90
14531;DHT22;7352;50.866;4.366;2023-05-19T05:36:07;12.10;99.90
14531;DHT22;7352;50.866;4.366;2023-05-19T05:38:35;12.20;99.90
14531;DHT22;7352;50.866;4.366;2023-05-19T05:41:02;12.20;99.90
14531;DHT22;7352;50.866;4.366;2023-05-19T05:43:29;12.20;99.90
14531;DHT22;7352;50.866;4.366;2023-05-19T05:45:57;12.00;99.90
14531;DHT22;7352;50.866;4.366;2023-05-19T05:48:27;12.10;99.90
14531;DHT22;7352;50.866;4.366;2023-05-19T05:50:56;12.30;99.90
14531;DHT22;7352;50.866;4.366;2023-05-19T05:53:24;12.30;99.90
14531;DHT22;7352;50.866;4.366;2023-05-19T05:55:53;12.20;99.90
14531;DHT22;7352;50.866;4.366;2023-05-19T05:58:20;12.10;99.90
14531;DHT22;7352;50.866;4.366;2023-05-19T06:00:48;12.20;99.90
14531;DHT22;7352;50.866;4.366;2023-05-19T06:03:17;12.20;99.90
14531;DHT22;7352;50.866;4.366;2023-05-19T06:05:46;12.30;99.90
14531;DHT22;7352;50.866;4.366;2023-05-19T06:08:13;12.20;99.90
14531;DHT22;7352;50.866;4.366;2023-05-19T06:10:41;12.20;99.90
14531;DHT22;7352;50.866;4.366;2023-05-19T06:13:08;12.10;99.90
14531;DHT22;7352;50.866;4.366;2023-05-19T06:15:35;12.40;99.90
14531;DHT22;7352;50.866;4.366;2023-05-19T06:18:02;12.50;99.90
14531;DHT22;7352;50.866;4.366;2023-05-19T06:20:32;12.40;99.90
14531;DHT22;7352;50.866;4.366;2023-05-19T06:23:00;12.50;99.90
14531;DHT22;7352;50.866;4.366;2023-05-19T06:25:27;12.40;99.90
14531;DHT22;7352;50.866;4.366;2023-05-19T06:27:55;12.50;99.90
14531;DHT22;7352;50.866;4.366;2023-05-19T06:30:22;12.50;99.90
14531;DHT22;7352;50.866;4.366;2023-05-19T06:32:49;12.70;99.90
14531;DHT22;7352;50.866;4.366;2023-05-19T06:35:16;12.70;99.90
14531;DHT22;7352;50.866;4.366;2023-05-19T06:37:46;12.80;99.90
14531;DHT22;7352;50.866;4.366;2023-05-19T06:40:13;12.90;99.90
14531;DHT22;7352;50.866;4.366;2023-05-19T06:42:40;13.10;99.90
14531;DHT22;7352;50.866;4.366;2023-05-19T06:45:09;13.00;99.90
14531;DHT22;7352;50.866;4.366;2023-05-19T06:47:36;13.00;99.90
14531;DHT22;7352;50.866;4.366;2023-05-19T06:50:07;13.10;99.90
14531;DHT22;7352;50.866;4.366;2023-05-19T06:52:34;13.10;99.90
14531;DHT22;7352;50.866;4.366;2023-05-19T06:55:03;13.20;99.90
14531;DHT22;7352;50.866;4.366;2023-05-19T06:57:30;13.30;99.90
14531;DHT22;7352;50.866;4.366;2023-05-19T06:59:59;13.30;99.90
14531;DHT22;7352;50.866;4.366;2023-05-19T07:02:26;13.50;99.90
14531;DHT22;7352;50.866;4.366;2023-05-19T07:04:53;13.50;99.40
14531;DHT22;7352;50.866;4.366;2023-05-19T07:07:21;13.60;99.50
14531;DHT22;7352;50.866;4.366;2023-05-19T07:09:48;13.80;99.60
14531;DHT22;7352;50.866;4.366;2023-05-19T07:12:17;13.80;99.10
14531;DHT22;7352;50.866;4.366;2023-05-19T07:14:44;13.80;99.10
14531;DHT22;7352;50.866;4.366;2023-05-19T07:17:11;13.90;99.50
14531;DHT22;7352;50.866;4.366;2023-05-19T07:19:39;14.00;98.60
14531;DHT22;7352;50.866;4.366;2023-05-19T07:22:06;14.10;98.40
14531;DHT22;7352;50.866;4.366;2023-05-19T07:24:33;14.10;98.10
14531;DHT22;7352;50.866;4.366;2023-05-19T07:27:00;14.40;98.50
14531;DHT22;7352;50.866;4.366;2023-05-19T07:29:28;14.20;98.40
14531;DHT22;7352;50.866;4.366;2023-05-19T07:31:55;14.40;98.20
14531;DHT22;7352;50.866;4.366;2023-05-19T07:34:22;14.60;97.60
14531;DHT22;7352;50.866;4.366;2023-05-19T07:36:49;14.70;97.30
14531;DHT22;7352;50.866;4.366;2023-05-19T07:39:17;14.80;96.90
14531;DHT22;7352;50.866;4.366;2023-05-19T07:41:44;14.80;97.30
14531;DHT22;7352;50.866;4.366;2023-05-19T07:44:17;14.90;96.90
14531;DHT22;7352;50.866;4.366;2023-05-19T07:46:45;15.00;96.80
14531;DHT22;7352;50.866;4.366;2023-05-19T07:49:12;15.00;96.80
14531;DHT22;7352;50.866;4.366;2023-05-19T07:51:40;14.90;96.70
14531;DHT22;7352;50.866;4.366;2023-05-19T07:54:07;15.20;97.10
14531;DHT22;7352;50.866;4.366;2023-05-19T07:56:34;15.30;96.60
14531;DHT22;7352;50.866;4.366;2023-05-19T07:59:02;15.40;96.90
14531;DHT22;7352;50.866;4.366;2023-05-19T08:01:29;15.40;96.20
14531;DHT22;7352;50.866;4.366;2023-05-19T08:03:58;15.40;96.20
14531;DHT22;7352;50.866;4.366;2023-05-19T08:06:25;15.40;96.70
14531;DHT22;7352;50.866;4.366;2023-05-19T08:08:52;15.40;96.00
14531;DHT22;7352;50.866;4.366;2023-05-19T08:11:19;15.50;96.20
14531;DHT22;7352;50.866;4.366;2023-05-19T08:13:47;15.60;95.90
14531;DHT22;7352;50.866;4.366;2023-05-19T08:16:14;15.70;95.90
14531;DHT22;7352;50.866;4.366;2023-05-19T08:18:41;15.90;95.60
14531;DHT22;7352;50.866;4.366;2023-05-19T08:21:11;15.90;95.30
14531;DHT22;7352;50.866;4.366;2023-05-19T08:23:38;15.80;95.20
14531;DHT22;7352;50.866;4.366;2023-05-19T08:26:06;15.90;94.80
14531;DHT22;7352;50.866;4.366;2023-05-19T08:28:34;16.00;95.30
14531;DHT22;7352;50.866;4.366;2023-05-19T08:31:01;16.00;95.20
14531;DHT22;7352;50.866;4.366;2023-05-19T08:33:28;16.00;95.40
14531;DHT22;7352;50.866;4.366;2023-05-19T08:35:55;16.10;94.90
14531;DHT22;7352;50.866;4.366;2023-05-19T08:38:25;16.20;94.40
14531;DHT22;7352;50.866;4.366;2023-05-19T08:40:52;16.10;95.10
14531;DHT22;7352;50.866;4.366;2023-05-19T08:43:19;16.20;95.60
14531;DHT22;7352;50.866;4.366;2023-05-19T08:45:47;16.40;94.50
14531;DHT22;7352;50.866;4.366;2023-05-19T08:48:16;16.60;93.90
14531;DHT22;7352;50.866;4.366;2023-05-19T08:50:50;16.70;94.00
14531;DHT22;7352;50.866;4.366;2023-05-19T08:53:19;16.90;93.60
14531;DHT22;7352;50.866;4.366;2023-05-19T08:55:57;17.00;93.90
14531;DHT22;7352;50.866;4.366;2023-05-19T08:58:27;17.10;93.20
14531;DHT22;7352;50.866;4.366;2023-05-19T09:00:55;17.20;92.40
14531;DHT22;7352;50.866;4.366;2023-05-19T09:03:23;17.10;91.90
14531;DHT22;7352;50.866;4.366;2023-05-19T09:05:53;17.10;91.80
14531;DHT22;7352;50.866;4.366;2023-05-19T09:08:20;17.30;92.20
14531;DHT22;7352;50.866;4.366;2023-05-19T09:10:48;17.40;91.80
14531;DHT22;7352;50.866;4.366;2023-05-19T09:13:16;17.30;91.30
14531;DHT22;7352;50.866;4.366;2023-05-19T09:15:44;17.40;91.00
14531;DHT22;7352;50.866;4.366;2023-05-19T09:18:12;17.30;90.50
14531;DHT22;7352;50.866;4.366;2023-05-19T09:20:41;17.30;91.00
14531;DHT22;7352;50.866;4.366;2023-05-19T09:23:12;17.40;91.00
14531;DHT22;7352;50.866;4.366;2023-05-19T09:26:10;17.60;91.10
14531;DHT22;7352;50.866;4.366;2023-05-19T09:28:39;17.90;90.30
14531;DHT22;7352;50.866;4.366;2023-05-19T09:31:07;17.90;88.00
14531;DHT22;7352;50.866;4.366;2023-05-19T09:33:35;17.80;88.90
14531;DHT22;7352;50.866;4.366;2023-05-19T09:36:04;17.70;90.10
14531;DHT22;7352;50.866;4.366;2023-05-19T09:38:33;17.70;89.40
14531;DHT22;7352;50.866;4.366;2023-05-19T09:41:01;17.80;88.60
14531;DHT22;7352;50.866;4.366;2023-05-19T09:43:29;17.70;89.20
14531;DHT22;7352;50.866;4.366;2023-05-19T09:46:02;17.90;87.60
14531;DHT22;7352;50.866;4.366;2023-05-19T09:48:30;18.00;86.30
14531;DHT22;7352;50.866;4.366;2023-05-19T09:51:00;18.10;86.50
14531;DHT22;7352;50.866;4.366;2023-05-19T09:53:34;18.20;86.50
14531;DHT22;7352;50.866;4.366;2023-05-19T09:56:01;18.30;83.90
14531;DHT22;7352;50.866;4.366;2023-05-19T09:58:30;18.50;82.90
14531;DHT22;7352;50.866;4.366;2023-05-19T10:01:01;18.70;81.60
14531;DHT22;7352;50.866;4.366;2023-05-19T10:03:30;18.70;82.10
14531;DHT22;7352;50.866;4.366;2023-05-19T10:06:00;18.70;82.00
14531;DHT22;7352;50.866;4.366;2023-05-19T10:08:28;18.90;83.20
14531;DHT22;7352;50.866;4.366;2023-05-19T10:10:56;19.10;82.00
14531;DHT22;7352;50.866;4.366;2023-05-19T10:13:24;18.80;81.80
14531;DHT22;7352;50.866;4.366;2023-05-19T10:15:52;18.80;83.30
14531;DHT22;7352;50.866;4.366;2023-05-19T10:18:22;18.90;82.70
14531;DHT22;7352;50.866;4.366;2023-05-19T10:20:51;19.20;81.30
14531;DHT22;7352;50.866;4.366;2023-05-19T10:23:19;19.40;80.20
14531;DHT22;7352;50.866;4.366;2023-05-19T10:25:47;19.50;78.50
14531;DHT22;7352;50.866;4.366;2023-05-19T10:28:16;19.60;78.30
14531;DHT22;7352;50.866;4.366;2023-05-19T10:30:49;19.80;78.50
14531;DHT22;7352;50.866;4.366;2023-05-19T10:33:22;19.90;77.70
14531;DHT22;7352;50.866;4.366;2023-05-19T10:36:14;20.30;78.30
14531;DHT22;7352;50.866;4.366;2023-05-19T10:38:55;20.30;76.80
14531;DHT22;7352;50.866;4.366;2023-05-19T10:41:30;20.20;77.50
14531;DHT22;7352;50.866;4.366;2023-05-19T10:44:08;20.10;75.90
14531;DHT22;7352;50.866;4.366;2023-05-19T10:46:36;20.10;75.90
14531;DHT22;7352;50.866;4.366;2023-05-19T10:49:08;20.30;75.80
14531;DHT22;7352;50.866;4.366;2023-05-19T10:51:35;20.40;75.30
14531;DHT22;7352;50.866;4.366;2023-05-19T10:54:09;20.50;75.70
14531;DHT22;7352;50.866;4.366;2023-05-19T10:56:42;20.50;74.20
14531;DHT22;7352;50.866;4.366;2023-05-19T10:59:31;20.40;74.30
14531;DHT22;7352;50.866;4.366;2023-05-19T11:02:02;20.40;74.10
14531;DHT22;7352;50.866;4.366;2023-05-19T11:04:45;20.20;73.80
14531;DHT22;7352;50.866;4.366;2023-05-19T11:07:16;20.30;75.80
14531;DHT22;7352;50.866;4.366;2023-05-19T11:09:48;20.60;75.40
14531;DHT22;7352;50.866;4.366;2023-05-19T11:12:22;20.80;74.50
14531;DHT22;7352;50.866;4.366;2023-05-19T11:14:51;20.80;74.40
14531;DHT22;7352;50.866;4.366;2023-05-19T11:17:18;20.80;73.10
14531;DHT22;7352;50.866;4.366;2023-05-19T11:19:55;20.60;74.30
14531;DHT22;7352;50.866;4.366;2023-05-19T11:22:24;20.70;74.20
14531;DHT22;7352;50.866;4.366;2023-05-19T11:24:53;20.80;74.00
14531;DHT22;7352;50.866;4.366;2023-05-19T11:27:24;20.70;74.90
14531;DHT22;7352;50.866;4.366;2023-05-19T11:29:52;20.60;73.60
14531;DHT22;7352;50.866;4.366;2023-05-19T11:32:21;20.60;73.20
14531;DHT22;7352;50.866;4.366;2023-05-19T11:34:48;20.50;72.70
14531;DHT22;7352;50.866;4.366;2023-05-19T11:37:17;20.60;73.10
14531;DHT22;7352;50.866;4.366;2023-05-19T11:39:46;20.70;76.20
14531;DHT22;7352;50.866;4.366;2023-05-19T11:42:13;20.90;76.40
14531;DHT22;7352;50.866;4.366;2023-05-19T11:44:41;20.90;74.20
14531;DHT22;7352;50.866;4.366;2023-05-19T11:47:11;20.60;76.60
14531;DHT22;7352;50.866;4.366;2023-05-19T11:49:41;20.20;74.00
14531;DHT22;7352;50.866;4.366;2023-05-19T11:52:09;20.00;74.40
14531;DHT22;7352;50.866;4.366;2023-05-19T11:54:38;19.80;74.80
14531;DHT22;7352;50.866;4.366;2023-05-19T11:57:07;19.90;76.20
14531;DHT22;7352;50.866;4.366;2023-05-19T11:59:36;20.10;72.10
14531;DHT22;7352;50.866;4.366;2023-05-19T12:02:19;20.20;72.50
14531;DHT22;7352;50.866;4.366;2023-05-19T12:04:51;20.40;72.50
14531;DHT22;7352;50.866;4.366;2023-05-19T12:07:19;20.50;72.60
14531;DHT22;7352;50.866;4.366;2023-05-19T12:09:50;20.60;71.50
14531;DHT22;7352;50.866;4.366;2023-05-19T12:12:18;20.70;70.70
14531;DHT22;7352;50.866;4.366;2023-05-19T12:14:46;20.80;71.40
14531;DHT22;7352;50.866;4.366;2023-05-19T12:17:18;20.90;70.20
14531;DHT22;7352;50.866;4.366;2023-05-19T12:19:48;21.10;69.80
14531;DHT22;7352;50.866;4.366;2023-05-19T12:22:16;21.10;71.10
14531;DHT22;7352;50.866;4.366;2023-05-19T12:24:44;21.00;69.10
14531;DHT22;7352;50.866;4.366;2023-05-19T12:27:16;21.30;70.60
14531;DHT22;7352;50.866;4.366;2023-05-19T12:29:48;21.50;70.30
14531;DHT22;7352;50.866;4.366;2023-05-19T12:32:21;21.70;68.90
14531;DHT22;7352;50.866;4.366;2023-05-19T12:34:49;21.80;67.50
14531;DHT22;7352;50.866;4.366;2023-05-19T12:37:16;22.00;70.00
14531;DHT22;7352;50.866;4.366;2023-05-19T12:39:44;22.00;69.30
14531;DHT22;7352;50.866;4.366;2023-05-19T12:42:13;22.00;68.60
14531;DHT22;7352;50.866;4.366;2023-05-19T12:44:43;21.80;69.90
14531;DHT22;7352;50.866;4.366;2023-05-19T12:47:12;21.70;68.30
14531;DHT22;7352;50.866;4.366;2023-05-19T12:49:53;21.80;70.70
14531;DHT22;7352;50.866;4.366;2023-05-19T12:52:21;22.10;67.70
14531;DHT22;7352;50.866;4.366;2023-05-19T12:54:48;21.90;67.20
14531;DHT22;7352;50.866;4.366;2023-05-19T12:57:19;21.90;66.50
14531;DHT22;7352;50.866;4.366;2023-05-19T12:59:47;21.90;67.00
14531;DHT22;7352;50.866;4.366;2023-05-19T13:02:14;22.00;67.60
14531;DHT22;7352;50.866;4.366;2023-05-19T13:04:42;21.80;68.20
14531;DHT22;7352;50.866;4.366;2023-05-19T13:07:09;21.50;67.80
14531;DHT22;7352;50.866;4.366;2023-05-19T13:09:36;21.60;68.40
14531;DHT22;7352;50.866;4.366;2023-05-19T13:12:03;21.50;69.20
14531;DHT22;7352;50.866;4.366;2023-05-19T13:14:32;21.60;64.90
14531;DHT22;7352;50.866;4.366;2023-05-19T13:16:59;21.90;65.60
14531;DHT22;7352;50.866;4.366;2023-05-19T13:19:26;22.10;65.70
14531;DHT22;7352;50.866;4.366;2023-05-19T13:21:54;22.40;65.00
14531;DHT22;7352;50.866;4.366;2023-05-19T13:24:21;22.70;65.20
14531;DHT22;7352;50.866;4.366;2023-05-19T13:26:49;22.70;65.90
14531;DHT22;7352;50.866;4.366;2023-05-19T13:29:16;22.20;64.70
14531;DHT22;7352;50.866;4.366;2023-05-19T13:31:44;22.20;65.10
14531;DHT22;7352;50.866;4.366;2023-05-19T13:34:11;22.40;62.10
14531;DHT22;7352;50.866;4.366;2023-05-19T13:36:39;22.30;62.20
14531;DHT22;7352;50.866;4.366;2023-05-19T13:39:07;22.10;64.50
14531;DHT22;7352;50.866;4.366;2023-05-19T13:41:34;22.00;66.70
14531;DHT22;7352;50.866;4.366;2023-05-19T13:44:02;22.10;64.60
14531;DHT22;7352;50.866;4.366;2023-05-19T13:46:29;22.10;66.20
14531;DHT22;7352;50.866;4.366;2023-05-19T13:48:58;22.30;66.60
14531;DHT22;7352;50.866;4.366;2023-05-19T13:51:25;22.60;63.70
14531;DHT22;7352;50.866;4.366;2023-05-19T13:53:52;22.80;62.40
14531;DHT22;7352;50.866;4.366;2023-05-19T13:56:19;22.80;62.50
14531;DHT22;7352;50.866;4.366;2023-05-19T13:58:48;22.70;62.60
14531;DHT22;7352;50.866;4.366;2023-05-19T14:01:15;22.60;63.20
14531;DHT22;7352;50.866;4.366;2023-05-19T14:03:43;22.80;62.90
14531;DHT22;7352;50.866;4.366;2023-05-19T14:06:12;22.70;63.90
14531;DHT22;7352;50.866;4.366;2023-05-19T14:08:40;22.70;63.10
14531;DHT22;7352;50.866;4.366;2023-05-19T14:11:07;22.60;62.50
14531;DHT22;7352;50.866;4.366;2023-05-19T14:13:41;22.70;61.70
14531;DHT22;7352;50.866;4.366;2023-05-19T14:16:12;22.70;63.00
14531;DHT22;7352;50.866;4.366;2023-05-19T14:18:42;22.70;62.30
14531;DHT22;7352;50.866;4.366;2023-05-19T14:21:11;23.00;63.30
14531;DHT22;7352;50.866;4.366;2023-05-19T14:23:38;23.30;62.30
14531;DHT22;7352;50.866;4.366;2023-05-19T14:26:06;23.70;64.40
14531;DHT22;7352;50.866;4.366;2023-05-19T14:28:33;23.80;62.60
14531;DHT22;7352;50.866;4.366;2023-05-19T14:31:00;24.10;63.50
14531;DHT22;7352;50.866;4.366;2023-05-19T14:33:27;24.30;63.50
14531;DHT22;7352;50.866;4.366;2023-05-19T14:35:54;24.10;61.50
14531;DHT22;7352;50.866;4.366;2023-05-19T14:38:26;24.00;61.60
14531;DHT22;7352;50.866;4.366;2023-05-19T14:40:53;24.10;62.70
14531;DHT22;7352;50.866;4.366;2023-05-19T14:43:20;24.30;62.50
14531;DHT22;7352;50.866;4.366;2023-05-19T14:45:49;24.50;61.70
14531;DHT22;7352;50.866;4.366;2023-05-19T14:48:16;24.70;60.20
14531;DHT22;7352;50.866;4.366;2023-05-19T14:50:43;24.50;59.50
14531;DHT22;7352;50.866;4.366;2023-05-19T14:53:10;24.50;58.70
14531;DHT22;7352;50.866;4.366;2023-05-19T14:55:39;24.60;60.20
14531;DHT22;7352;50.866;4.366;2023-05-19T14:58:06;24.70;60.10
14531;DHT22;7352;50.866;4.366;2023-05-19T15:00:34;24.70;59.20
14531;DHT22;7352;50.866;4.366;2023-05-19T15:03:01;24.80;61.40
14531;DHT22;7352;50.866;4.366;2023-05-19T15:05:28;25.00;60.00
14531;DHT22;7352;50.866;4.366;2023-05-19T15:07:55;25.00;57.40
14531;DHT22;7352;50.866;4.366;2023-05-19T15:10:22;25.20;56.60
14531;DHT22;7352;50.866;4.366;2023-05-19T15:12:51;25.30;56.90
14531;DHT22;7352;50.866;4.366;2023-05-19T15:15:18;25.80;56.90
14531;DHT22;7352;50.866;4.366;2023-05-19T15:17:45;25.90;54.50
14531;DHT22;7352;50.866;4.366;2023-05-19T15:20:12;26.40;55.30
14531;DHT22;7352;50.866;4.366;2023-05-19T15:22:39;26.20;54.20
14531;DHT22;7352;50.866;4.366;2023-05-19T15:25:07;26.50;54.90
14531;DHT22;7352;50.866;4.366;2023-05-19T15:27:35;26.50;54.50
14531;DHT22;7352;50.866;4.366;2023-05-19T15:30:04;26.50;54.20
14531;DHT22;7352;50.866;4.366;2023-05-19T15:32:31;26.40;54.30
14531;DHT22;7352;50.866;4.366;2023-05-19T15:34:58;26.40;53.50
14531;DHT22;7352;50.866;4.366;2023-05-19T15:37:25;26.70;52.70
14531;DHT22;7352;50.866;4.366;2023-05-19T15:39:52;27.10;51.70
14531;DHT22;7352;50.866;4.366;2023-05-19T15:42:20;27.30;51.50
14531;DHT22;7352;50.866;4.366;2023-05-19T15:44:48;27.20;51.60
14531;DHT22;7352;50.866;4.366;2023-05-19T15:47:16;27.30;51.50
14531;DHT22;7352;50.866;4.366;2023-05-19T15:49:43;27.40;51.50
14531;DHT22;7352;50.866;4.366;2023-05-19T15:52:10;27.30;51.70
14531;DHT22;7352;50.866;4.366;2023-05-19T15:54:37;27.30;51.00
14531;DHT22;7352;50.866;4.366;2023-05-19T15:57:05;27.40;51.30
14531;DHT22;7352;50.866;4.366;2023-05-19T15:59:32;27.20;51.30